sensor_id;sensor_type;location;lat;lon;timestamp;P1;durP1;ratioP1;P2;durP2;ratioP2
3993;SDS011;2011;48.238;13.948;2022-12-18T00:00:44;89.90;;;33.30;;
3993;SDS011;2011;48.238;13.948;2022-12-18T00:03:13;87.75;;;31.00;;
3993;SDS011;2011;48.238;13.948;2022-12-18T00:05:45;79.07;;;31.67;;
3993;SDS011;2011;48.238;13.948;2022-12-18T00:08:12;87.03;;;31.45;;
3993;SDS011;2011;48.238;13.948;2022-12-18T00:10:40;186.52;;;36.03;;
3993;SDS011;2011;48.238;13.948;2022-12-18T00:13:07;75.35;;;30.65;;
3993;SDS011;2011;48.238;13.948;2022-12-18T00:15:34;75.22;;;30.40;;
3993;SDS011;2011;48.238;13.948;2022-12-18T00:18:02;81.30;;;31.92;;
3993;SDS011;2011;48.238;13.948;2022-12-18T00:20:29;89.97;;;31.67;;
3993;SDS011;2011;48.238;13.948;2022-12-18T00:22:57;75.03;;;31.20;;
3993;SDS011;2011;48.238;13.948;2022-12-18T00:25:24;72.80;;;29.33;;
3993;SDS011;2011;48.238;13.948;2022-12-18T00:27:51;72.20;;;29.45;;
3993;SDS011;2011;48.238;13.948;2022-12-18T00:30:17;67.57;;;27.92;;
3993;SDS011;2011;48.238;13.948;2022-12-18T00:32:44;77.72;;;30.23;;
3993;SDS011;2011;48.238;13.948;2022-12-18T00:35:13;77.25;;;29.85;;
3993;SDS011;2011;48.238;13.948;2022-12-18T00:37:39;84.57;;;32.20;;
3993;SDS011;2011;48.238;13.948;2022-12-18T00:40:07;77.20;;;29.70;;
3993;SDS011;2011;48.238;13.948;2022-12-18T00:42:35;95.60;;;32.30;;
3993;SDS011;2011;48.238;13.948;2022-12-18T00:45:19;124.78;;;35.47;;
3993;SDS011;2011;48.238;13.948;2022-12-18T00:47:46;88.10;;;33.00;;
3993;SDS011;2011;48.238;13.948;2022-12-18T00:50:14;106.90;;;34.13;;
3993;SDS011;2011;48.238;13.948;2022-12-18T00:52:41;91.47;;;34.22;;
3993;SDS011;2011;48.238;13.948;2022-12-18T00:55:08;88.30;;;33.10;;
3993;SDS011;2011;48.238;13.948;2022-12-18T00:57:35;88.78;;;32.85;;
3993;SDS011;2011;48.238;13.948;2022-12-18T01:00:03;77.80;;;32.13;;
3993;SDS011;2011;48.238;13.948;2022-12-18T01:02:31;98.55;;;32.45;;
3993;SDS011;2011;48.238;13.948;2022-12-18T01:04:58;98.20;;;35.80;;
3993;SDS011;2011;48.238;13.948;2022-12-18T01:07:26;149.65;;;39.88;;
3993;SDS011;2011;48.238;13.948;2022-12-18T01:09:53;143.15;;;36.45;;
3993;SDS011;2011;48.238;13.948;2022-12-18T01:12:20;172.10;;;38.40;;
3993;SDS011;2011;48.238;13.948;2022-12-18T01:14:47;191.32;;;41.67;;
3993;SDS011;2011;48.238;13.948;2022-12-18T01:17:14;278.83;;;46.70;;
3993;SDS011;2011;48.238;13.948;2022-12-18T01:19:41;343.67;;;55.03;;
3993;SDS011;2011;48.238;13.948;2022-12-18T01:22:08;188.55;;;43.13;;
3993;SDS011;2011;48.238;13.948;2022-12-18T01:24:36;204.57;;;43.00;;
3993;SDS011;2011;48.238;13.948;2022-12-18T01:27:03;183.90;;;43.65;;
3993;SDS011;2011;48.238;13.948;2022-12-18T01:29:30;328.02;;;49.13;;
3993;SDS011;2011;48.238;13.948;2022-12-18T01:31:57;177.93;;;43.72;;
3993;SDS011;2011;48.238;13.948;2022-12-18T01:34:24;154.10;;;41.15;;
3993;SDS011;2011;48.238;13.948;2022-12-18T01:36:51;207.65;;;46.78;;
3993;SDS011;2011;48.238;13.948;2022-12-18T01:39:18;180.35;;;44.47;;
3993;SDS011;2011;48.238;13.948;2022-12-18T01:41:46;152.38;;;39.38;;
3993;SDS011;2011;48.238;13.948;2022-12-18T01:47:32;144.35;;;37.53;;
3993;SDS011;2011;48.238;13.948;2022-12-18T01:50:03;162.02;;;42.70;;
3993;SDS011;2011;48.238;13.948;2022-12-18T01:52:33;142.33;;;38.27;;
3993;SDS011;2011;48.238;13.948;2022-12-18T01:55:00;178.40;;;38.83;;
3993;SDS011;2011;48.238;13.948;2022-12-18T01:57:31;178.35;;;39.72;;
3993;SDS011;2011;48.238;13.948;2022-12-18T01:59:59;139.82;;;38.17;;
3993;SDS011;2011;48.238;13.948;2022-12-18T02:02:28;172.77;;;41.13;;
3993;SDS011;2011;48.238;13.948;2022-12-18T02:04:56;140.30;;;38.03;;
3993;SDS011;2011;48.238;13.948;2022-12-18T02:07:25;144.52;;;34.78;;
3993;SDS011;2011;48.238;13.948;2022-12-18T02:10:05;152.77;;;36.63;;
3993;SDS011;2011;48.238;13.948;2022-12-18T02:12:45;261.27;;;42.70;;
3993;SDS011;2011;48.238;13.948;2022-12-18T02:15:20;140.85;;;37.03;;
3993;SDS011;2011;48.238;13.948;2022-12-18T02:17:54;164.40;;;38.70;;
3993;SDS011;2011;48.238;13.948;2022-12-18T02:20:26;134.82;;;34.60;;
3993;SDS011;2011;48.238;13.948;2022-12-18T02:23:01;141.05;;;35.45;;
3993;SDS011;2011;48.238;13.948;2022-12-18T02:25:40;129.43;;;36.38;;
3993;SDS011;2011;48.238;13.948;2022-12-18T02:28:30;160.07;;;36.60;;
3993;SDS011;2011;48.238;13.948;2022-12-18T02:31:01;154.98;;;38.47;;
3993;SDS011;2011;48.238;13.948;2022-12-18T02:33:31;168.32;;;38.03;;
3993;SDS011;2011;48.238;13.948;2022-12-18T02:36:00;173.68;;;38.10;;
3993;SDS011;2011;48.238;13.948;2022-12-18T02:38:28;140.45;;;37.42;;
3993;SDS011;2011;48.238;13.948;2022-12-18T02:40:56;130.10;;;35.50;;
3993;SDS011;2011;48.238;13.948;2022-12-18T02:43:25;115.28;;;35.50;;
3993;SDS011;2011;48.238;13.948;2022-12-18T02:45:53;125.05;;;33.40;;
3993;SDS011;2011;48.238;13.948;2022-12-18T02:48:22;112.97;;;34.05;;
3993;SDS011;2011;48.238;13.948;2022-12-18T02:50:55;119.13;;;34.40;;
3993;SDS011;2011;48.238;13.948;2022-12-18T02:53:30;106.13;;;35.22;;
3993;SDS011;2011;48.238;13.948;2022-12-18T02:56:05;118.75;;;33.90;;
3993;SDS011;2011;48.238;13.948;2022-12-18T02:58:37;127.88;;;35.17;;
3993;SDS011;2011;48.238;13.948;2022-12-18T03:01:14;124.15;;;35.33;;
3993;SDS011;2011;48.238;13.948;2022-12-18T03:03:48;114.65;;;33.67;;
3993;SDS011;2011;48.238;13.948;2022-12-18T03:06:23;118.53;;;35.65;;
3993;SDS011;2011;48.238;13.948;2022-12-18T03:08:54;105.80;;;32.85;;
3993;SDS011;2011;48.238;13.948;2022-12-18T03:11:26;92.53;;;31.13;;
3993;SDS011;2011;48.238;13.948;2022-12-18T03:14:13;98.80;;;32.20;;
3993;SDS011;2011;48.238;13.948;2022-12-18T03:16:43;104.60;;;31.85;;
3993;SDS011;2011;48.238;13.948;2022-12-18T03:19:14;91.95;;;32.03;;
3993;SDS011;2011;48.238;13.948;2022-12-18T03:21:46;95.88;;;31.42;;
3993;SDS011;2011;48.238;13.948;2022-12-18T03:24:17;169.73;;;36.45;;
3993;SDS011;2011;48.238;13.948;2022-12-18T03:26:49;106.40;;;34.05;;
3993;SDS011;2011;48.238;13.948;2022-12-18T03:29:19;109.65;;;34.58;;
3993;SDS011;2011;48.238;13.948;2022-12-18T03:31:54;91.35;;;31.35;;
3993;SDS011;2011;48.238;13.948;2022-12-18T03:34:29;126.30;;;36.30;;
3993;SDS011;2011;48.238;13.948;2022-12-18T03:37:03;98.82;;;31.95;;
3993;SDS011;2011;48.238;13.948;2022-12-18T03:39:30;100.68;;;32.83;;
3993;SDS011;2011;48.238;13.948;2022-12-18T03:42:00;118.50;;;33.33;;
3993;SDS011;2011;48.238;13.948;2022-12-18T03:44:32;98.65;;;32.38;;
3993;SDS011;2011;48.238;13.948;2022-12-18T03:47:07;97.30;;;31.15;;
3993;SDS011;2011;48.238;13.948;2022-12-18T03:49:37;78.95;;;29.98;;
3993;SDS011;2011;48.238;13.948;2022-12-18T03:52:10;98.88;;;29.65;;
3993;SDS011;2011;48.238;13.948;2022-12-18T03:54:42;88.28;;;31.13;;
3993;SDS011;2011;48.238;13.948;2022-12-18T03:57:13;80.38;;;27.92;;
3993;SDS011;2011;48.238;13.948;2022-12-18T03:59:43;86.22;;;30.50;;
3993;SDS011;2011;48.238;13.948;2022-12-18T04:02:11;90.68;;;29.02;;
3993;SDS011;2011;48.238;13.948;2022-12-18T04:04:39;78.45;;;27.33;;
3993;SDS011;2011;48.238;13.948;2022-12-18T04:07:08;75.55;;;29.08;;
3993;SDS011;2011;48.238;13.948;2022-12-18T04:09:35;76.82;;;28.40;;
3993;SDS011;2011;48.238;13.948;2022-12-18T04:12:04;64.82;;;24.60;;
3993;SDS011;2011;48.238;13.948;2022-12-18T04:14:33;73.88;;;25.75;;
3993;SDS011;2011;48.238;13.948;2022-12-18T04:17:00;67.63;;;24.83;;
3993;SDS011;2011;48.238;13.948;2022-12-18T04:19:27;68.45;;;24.95;;
3993;SDS011;2011;48.238;13.948;2022-12-18T04:21:54;64.80;;;23.75;;
3993;SDS011;2011;48.238;13.948;2022-12-18T04:24:21;65.47;;;25.55;;
3993;SDS011;2011;48.238;13.948;2022-12-18T04:26:48;61.60;;;22.83;;
3993;SDS011;2011;48.238;13.948;2022-12-18T04:29:15;72.13;;;25.05;;
3993;SDS011;2011;48.238;13.948;2022-12-18T04:31:43;73.38;;;24.90;;
3993;SDS011;2011;48.238;13.948;2022-12-18T04:34:10;76.32;;;24.67;;
3993;SDS011;2011;48.238;13.948;2022-12-18T04:36:37;78.40;;;25.77;;
3993;SDS011;2011;48.238;13.948;2022-12-18T04:39:04;79.47;;;26.92;;
3993;SDS011;2011;48.238;13.948;2022-12-18T04:41:31;72.03;;;26.20;;
3993;SDS011;2011;48.238;13.948;2022-12-18T04:43:58;81.50;;;26.23;;
3993;SDS011;2011;48.238;13.948;2022-12-18T04:46:25;71.72;;;26.35;;
3993;SDS011;2011;48.238;13.948;2022-12-18T04:48:53;82.63;;;27.88;;
3993;SDS011;2011;48.238;13.948;2022-12-18T04:51:20;76.30;;;28.48;;
3993;SDS011;2011;48.238;13.948;2022-12-18T04:53:47;100.72;;;30.27;;
3993;SDS011;2011;48.238;13.948;2022-12-18T04:56:14;95.55;;;29.38;;
3993;SDS011;2011;48.238;13.948;2022-12-18T04:58:43;87.38;;;28.15;;
3993;SDS011;2011;48.238;13.948;2022-12-18T05:01:10;96.50;;;30.00;;
3993;SDS011;2011;48.238;13.948;2022-12-18T05:03:39;101.13;;;30.05;;
3993;SDS011;2011;48.238;13.948;2022-12-18T05:06:08;103.38;;;30.30;;
3993;SDS011;2011;48.238;13.948;2022-12-18T05:08:35;82.72;;;28.65;;
3993;SDS011;2011;48.238;13.948;2022-12-18T05:11:03;93.88;;;29.50;;
3993;SDS011;2011;48.238;13.948;2022-12-18T05:13:33;85.30;;;30.25;;
3993;SDS011;2011;48.238;13.948;2022-12-18T05:16:01;107.10;;;31.70;;
3993;SDS011;2011;48.238;13.948;2022-12-18T05:18:28;106.80;;;33.47;;
3993;SDS011;2011;48.238;13.948;2022-12-18T05:20:56;136.57;;;31.58;;
3993;SDS011;2011;48.238;13.948;2022-12-18T05:23:24;145.55;;;33.95;;
3993;SDS011;2011;48.238;13.948;2022-12-18T05:25:52;108.63;;;32.45;;
3993;SDS011;2011;48.238;13.948;2022-12-18T05:28:19;147.50;;;33.83;;
3993;SDS011;2011;48.238;13.948;2022-12-18T05:30:48;126.25;;;34.05;;
3993;SDS011;2011;48.238;13.948;2022-12-18T05:33:15;111.97;;;30.85;;
3993;SDS011;2011;48.238;13.948;2022-12-18T05:35:42;120.07;;;32.83;;
3993;SDS011;2011;48.238;13.948;2022-12-18T05:38:10;89.82;;;28.92;;
3993;SDS011;2011;48.238;13.948;2022-12-18T05:40:40;113.38;;;30.33;;
3993;SDS011;2011;48.238;13.948;2022-12-18T05:43:08;119.78;;;31.67;;
3993;SDS011;2011;48.238;13.948;2022-12-18T05:45:36;107.57;;;31.77;;
3993;SDS011;2011;48.238;13.948;2022-12-18T05:48:04;120.90;;;30.83;;
3993;SDS011;2011;48.238;13.948;2022-12-18T05:50:33;105.68;;;29.63;;
3993;SDS011;2011;48.238;13.948;2022-12-18T05:53:01;112.57;;;29.58;;
3993;SDS011;2011;48.238;13.948;2022-12-18T05:55:29;114.88;;;31.02;;
3993;SDS011;2011;48.238;13.948;2022-12-18T05:58:00;111.13;;;28.92;;
3993;SDS011;2011;48.238;13.948;2022-12-18T06:00:26;91.28;;;28.08;;
3993;SDS011;2011;48.238;13.948;2022-12-18T06:02:54;108.40;;;30.33;;
3993;SDS011;2011;48.238;13.948;2022-12-18T06:05:21;106.90;;;28.88;;
3993;SDS011;2011;48.238;13.948;2022-12-18T06:07:48;103.30;;;28.30;;
3993;SDS011;2011;48.238;13.948;2022-12-18T06:10:15;104.03;;;30.02;;
3993;SDS011;2011;48.238;13.948;2022-12-18T06:12:42;105.70;;;27.33;;
3993;SDS011;2011;48.238;13.948;2022-12-18T06:15:10;112.47;;;28.25;;
3993;SDS011;2011;48.238;13.948;2022-12-18T06:17:37;97.05;;;29.25;;
3993;SDS011;2011;48.238;13.948;2022-12-18T06:20:04;99.63;;;29.83;;
3993;SDS011;2011;48.238;13.948;2022-12-18T06:22:32;101.03;;;30.85;;
3993;SDS011;2011;48.238;13.948;2022-12-18T06:24:59;97.47;;;27.83;;
3993;SDS011;2011;48.238;13.948;2022-12-18T06:27:26;97.10;;;29.02;;
3993;SDS011;2011;48.238;13.948;2022-12-18T06:29:53;104.25;;;30.85;;
3993;SDS011;2011;48.238;13.948;2022-12-18T06:32:22;113.75;;;29.92;;
3993;SDS011;2011;48.238;13.948;2022-12-18T06:34:48;84.18;;;26.08;;
3993;SDS011;2011;48.238;13.948;2022-12-18T06:37:15;113.03;;;28.10;;
3993;SDS011;2011;48.238;13.948;2022-12-18T06:39:42;86.90;;;24.98;;
3993;SDS011;2011;48.238;13.948;2022-12-18T06:42:09;78.38;;;23.73;;
3993;SDS011;2011;48.238;13.948;2022-12-18T06:44:36;83.90;;;24.85;;
3993;SDS011;2011;48.238;13.948;2022-12-18T06:47:03;93.60;;;26.50;;
3993;SDS011;2011;48.238;13.948;2022-12-18T06:49:31;75.45;;;23.75;;
3993;SDS011;2011;48.238;13.948;2022-12-18T06:51:58;80.93;;;23.25;;
3993;SDS011;2011;48.238;13.948;2022-12-18T06:54:25;75.18;;;25.40;;
3993;SDS011;2011;48.238;13.948;2022-12-18T06:56:52;74.07;;;24.40;;
3993;SDS011;2011;48.238;13.948;2022-12-18T06:59:20;79.33;;;23.57;;
3993;SDS011;2011;48.238;13.948;2022-12-18T07:01:47;76.45;;;25.70;;
3993;SDS011;2011;48.238;13.948;2022-12-18T07:04:14;74.68;;;24.67;;
3993;SDS011;2011;48.238;13.948;2022-12-18T07:06:43;69.45;;;24.40;;
3993;SDS011;2011;48.238;13.948;2022-12-18T07:09:09;61.63;;;21.63;;
3993;SDS011;2011;48.238;13.948;2022-12-18T07:11:36;78.47;;;22.70;;
3993;SDS011;2011;48.238;13.948;2022-12-18T07:14:03;61.08;;;21.90;;
3993;SDS011;2011;48.238;13.948;2022-12-18T07:16:30;65.55;;;22.73;;
3993;SDS011;2011;48.238;13.948;2022-12-18T07:18:57;71.65;;;22.83;;
3993;SDS011;2011;48.238;13.948;2022-12-18T07:21:24;67.53;;;22.13;;
3993;SDS011;2011;48.238;13.948;2022-12-18T07:23:52;65.03;;;23.85;;
3993;SDS011;2011;48.238;13.948;2022-12-18T07:26:20;62.78;;;24.00;;
3993;SDS011;2011;48.238;13.948;2022-12-18T07:28:48;68.20;;;22.17;;
3993;SDS011;2011;48.238;13.948;2022-12-18T07:31:16;62.75;;;23.42;;
3993;SDS011;2011;48.238;13.948;2022-12-18T07:33:44;60.95;;;22.80;;
3993;SDS011;2011;48.238;13.948;2022-12-18T07:36:12;60.45;;;22.98;;
3993;SDS011;2011;48.238;13.948;2022-12-18T07:38:39;64.82;;;24.20;;
3993;SDS011;2011;48.238;13.948;2022-12-18T07:41:08;63.25;;;22.17;;
3993;SDS011;2011;48.238;13.948;2022-12-18T07:43:36;59.78;;;21.98;;
3993;SDS011;2011;48.238;13.948;2022-12-18T07:46:04;57.15;;;22.20;;
3993;SDS011;2011;48.238;13.948;2022-12-18T07:48:31;64.20;;;22.98;;
3993;SDS011;2011;48.238;13.948;2022-12-18T07:50:59;53.97;;;20.30;;
3993;SDS011;2011;48.238;13.948;2022-12-18T07:53:27;58.35;;;22.33;;
3993;SDS011;2011;48.238;13.948;2022-12-18T07:55:55;60.05;;;21.45;;
3993;SDS011;2011;48.238;13.948;2022-12-18T07:58:24;78.53;;;22.50;;
3993;SDS011;2011;48.238;13.948;2022-12-18T08:00:51;52.05;;;19.58;;
3993;SDS011;2011;48.238;13.948;2022-12-18T08:03:19;50.45;;;21.80;;
3993;SDS011;2011;48.238;13.948;2022-12-18T08:05:49;61.20;;;21.80;;
3993;SDS011;2011;48.238;13.948;2022-12-18T08:08:16;52.55;;;19.65;;
3993;SDS011;2011;48.238;13.948;2022-12-18T08:10:43;50.20;;;19.00;;
3993;SDS011;2011;48.238;13.948;2022-12-18T08:13:10;46.90;;;19.67;;
3993;SDS011;2011;48.238;13.948;2022-12-18T08:15:39;48.67;;;19.75;;
3993;SDS011;2011;48.238;13.948;2022-12-18T08:18:06;49.70;;;19.63;;
3993;SDS011;2011;48.238;13.948;2022-12-18T08:20:33;57.95;;;21.35;;
3993;SDS011;2011;48.238;13.948;2022-12-18T08:23:00;61.95;;;22.13;;
3993;SDS011;2011;48.238;13.948;2022-12-18T08:25:27;50.33;;;21.40;;
3993;SDS011;2011;48.238;13.948;2022-12-18T08:27:54;57.85;;;20.95;;
3993;SDS011;2011;48.238;13.948;2022-12-18T08:30:21;55.40;;;21.40;;
3993;SDS011;2011;48.238;13.948;2022-12-18T08:32:52;57.38;;;20.80;;
3993;SDS011;2011;48.238;13.948;2022-12-18T08:35:19;52.70;;;20.25;;
3993;SDS011;2011;48.238;13.948;2022-12-18T08:37:45;60.53;;;21.70;;
3993;SDS011;2011;48.238;13.948;2022-12-18T08:40:12;54.20;;;20.42;;
3993;SDS011;2011;48.238;13.948;2022-12-18T08:42:39;53.88;;;20.48;;
3993;SDS011;2011;48.238;13.948;2022-12-18T08:45:23;53.88;;;19.88;;
3993;SDS011;2011;48.238;13.948;2022-12-18T08:47:52;61.78;;;21.95;;
3993;SDS011;2011;48.238;13.948;2022-12-18T08:50:19;55.17;;;21.10;;
3993;SDS011;2011;48.238;13.948;2022-12-18T08:52:46;56.25;;;21.60;;
3993;SDS011;2011;48.238;13.948;2022-12-18T08:55:13;62.50;;;22.73;;
3993;SDS011;2011;48.238;13.948;2022-12-18T08:57:40;59.95;;;22.92;;
3993;SDS011;2011;48.238;13.948;2022-12-18T09:00:08;68.13;;;23.10;;
3993;SDS011;2011;48.238;13.948;2022-12-18T09:02:38;61.45;;;22.73;;
3993;SDS011;2011;48.238;13.948;2022-12-18T09:05:06;50.05;;;20.92;;
3993;SDS011;2011;48.238;13.948;2022-12-18T09:07:33;53.08;;;22.05;;
3993;SDS011;2011;48.238;13.948;2022-12-18T09:10:00;60.40;;;24.20;;
3993;SDS011;2011;48.238;13.948;2022-12-18T09:12:27;62.13;;;23.25;;
3993;SDS011;2011;48.238;13.948;2022-12-18T09:14:54;68.65;;;24.05;;
3993;SDS011;2011;48.238;13.948;2022-12-18T09:17:22;52.45;;;19.92;;
3993;SDS011;2011;48.238;13.948;2022-12-18T09:19:49;54.35;;;21.52;;
3993;SDS011;2011;48.238;13.948;2022-12-18T09:22:18;60.33;;;23.90;;
3993;SDS011;2011;48.238;13.948;2022-12-18T09:24:45;53.92;;;20.80;;
3993;SDS011;2011;48.238;13.948;2022-12-18T09:27:12;54.65;;;21.42;;
3993;SDS011;2011;48.238;13.948;2022-12-18T09:29:38;50.13;;;20.70;;
3993;SDS011;2011;48.238;13.948;2022-12-18T09:32:05;54.83;;;21.98;;
3993;SDS011;2011;48.238;13.948;2022-12-18T09:34:32;50.67;;;21.02;;
3993;SDS011;2011;48.238;13.948;2022-12-18T09:36:59;57.40;;;21.13;;
3993;SDS011;2011;48.238;13.948;2022-12-18T09:39:27;54.60;;;20.83;;
3993;SDS011;2011;48.238;13.948;2022-12-18T09:41:55;47.75;;;21.02;;
3993;SDS011;2011;48.238;13.948;2022-12-18T09:44:24;47.80;;;19.95;;
3993;SDS011;2011;48.238;13.948;2022-12-18T09:46:56;52.03;;;20.42;;
3993;SDS011;2011;48.238;13.948;2022-12-18T09:49:30;40.70;;;18.42;;
3993;SDS011;2011;48.238;13.948;2022-12-18T09:52:02;51.42;;;21.30;;
3993;SDS011;2011;48.238;13.948;2022-12-18T09:54:38;40.42;;;18.90;;
3993;SDS011;2011;48.238;13.948;2022-12-18T09:57:13;43.58;;;18.52;;
3993;SDS011;2011;48.238;13.948;2022-12-18T09:59:41;37.13;;;18.42;;
3993;SDS011;2011;48.238;13.948;2022-12-18T10:02:16;42.67;;;18.67;;
3993;SDS011;2011;48.238;13.948;2022-12-18T10:04:44;39.42;;;16.90;;
3993;SDS011;2011;48.238;13.948;2022-12-18T10:07:20;39.58;;;18.33;;
3993;SDS011;2011;48.238;13.948;2022-12-18T10:09:58;39.83;;;17.40;;
3993;SDS011;2011;48.238;13.948;2022-12-18T10:12:34;42.28;;;18.52;;
3993;SDS011;2011;48.238;13.948;2022-12-18T10:15:10;36.88;;;17.23;;
3993;SDS011;2011;48.238;13.948;2022-12-18T10:17:45;40.83;;;18.30;;
3993;SDS011;2011;48.238;13.948;2022-12-18T10:20:16;42.83;;;18.08;;
3993;SDS011;2011;48.238;13.948;2022-12-18T10:22:49;40.35;;;16.30;;
3993;SDS011;2011;48.238;13.948;2022-12-18T10:25:26;38.42;;;17.65;;
3993;SDS011;2011;48.238;13.948;2022-12-18T10:27:58;38.13;;;17.25;;
3993;SDS011;2011;48.238;13.948;2022-12-18T10:30:33;39.25;;;15.88;;
3993;SDS011;2011;48.238;13.948;2022-12-18T10:33:00;34.92;;;17.00;;
3993;SDS011;2011;48.238;13.948;2022-12-18T10:35:28;34.38;;;15.50;;
3993;SDS011;2011;48.238;13.948;2022-12-18T10:37:59;35.75;;;16.75;;
3993;SDS011;2011;48.238;13.948;2022-12-18T10:40:29;36.95;;;16.42;;
3993;SDS011;2011;48.238;13.948;2022-12-18T10:43:03;33.83;;;17.10;;
3993;SDS011;2011;48.238;13.948;2022-12-18T10:45:32;38.45;;;15.98;;
3993;SDS011;2011;48.238;13.948;2022-12-18T10:48:00;34.53;;;15.20;;
3993;SDS011;2011;48.238;13.948;2022-12-18T10:50:28;32.10;;;15.35;;
3993;SDS011;2011;48.238;13.948;2022-12-18T10:52:57;30.67;;;15.38;;
3993;SDS011;2011;48.238;13.948;2022-12-18T10:55:27;32.25;;;15.13;;
3993;SDS011;2011;48.238;13.948;2022-12-18T10:58:13;32.83;;;15.57;;
3993;SDS011;2011;48.238;13.948;2022-12-18T11:00:51;31.75;;;15.05;;
3993;SDS011;2011;48.238;13.948;2022-12-18T11:03:30;34.28;;;16.02;;
3993;SDS011;2011;48.238;13.948;2022-12-18T11:06:04;27.38;;;13.68;;
3993;SDS011;2011;48.238;13.948;2022-12-18T11:08:33;34.53;;;14.85;;
3993;SDS011;2011;48.238;13.948;2022-12-18T11:11:01;33.28;;;16.25;;
3993;SDS011;2011;48.238;13.948;2022-12-18T11:13:29;31.45;;;15.77;;
3993;SDS011;2011;48.238;13.948;2022-12-18T11:15:57;32.78;;;15.00;;
3993;SDS011;2011;48.238;13.948;2022-12-18T11:18:25;25.90;;;14.25;;
3993;SDS011;2011;48.238;13.948;2022-12-18T11:20:55;34.45;;;15.57;;
3993;SDS011;2011;48.238;13.948;2022-12-18T11:23:23;31.17;;;14.68;;
3993;SDS011;2011;48.238;13.948;2022-12-18T11:25:52;30.33;;;14.10;;
3993;SDS011;2011;48.238;13.948;2022-12-18T11:28:27;27.90;;;14.60;;
3993;SDS011;2011;48.238;13.948;2022-12-18T11:31:11;27.60;;;13.88;;
3993;SDS011;2011;48.238;13.948;2022-12-18T11:33:51;35.58;;;15.80;;
3993;SDS011;2011;48.238;13.948;2022-12-18T11:36:22;29.33;;;14.40;;
3993;SDS011;2011;48.238;13.948;2022-12-18T11:38:50;33.75;;;15.82;;
3993;SDS011;2011;48.238;13.948;2022-12-18T11:41:21;32.45;;;15.25;;
3993;SDS011;2011;48.238;13.948;2022-12-18T11:44:15;31.80;;;14.63;;
3993;SDS011;2011;48.238;13.948;2022-12-18T11:46:49;35.53;;;15.90;;
3993;SDS011;2011;48.238;13.948;2022-12-18T11:49:22;30.88;;;15.00;;
3993;SDS011;2011;48.238;13.948;2022-12-18T11:51:53;29.17;;;14.77;;
3993;SDS011;2011;48.238;13.948;2022-12-18T11:54:25;40.42;;;15.02;;
3993;SDS011;2011;48.238;13.948;2022-12-18T11:56:53;31.67;;;15.13;;
3993;SDS011;2011;48.238;13.948;2022-12-18T11:59:29;33.38;;;16.08;;
3993;SDS011;2011;48.238;13.948;2022-12-18T12:02:03;28.17;;;15.40;;
3993;SDS011;2011;48.238;13.948;2022-12-18T12:07:35;44.53;;;14.82;;
3993;SDS011;2011;48.238;13.948;2022-12-18T12:10:14;28.55;;;14.63;;
3993;SDS011;2011;48.238;13.948;2022-12-18T12:12:57;30.63;;;15.18;;
3993;SDS011;2011;48.238;13.948;2022-12-18T12:15:39;35.47;;;16.25;;
3993;SDS011;2011;48.238;13.948;2022-12-18T12:18:15;31.27;;;15.23;;
3993;SDS011;2011;48.238;13.948;2022-12-18T12:20:49;30.08;;;15.63;;
3993;SDS011;2011;48.238;13.948;2022-12-18T12:23:35;35.78;;;16.05;;
3993;SDS011;2011;48.238;13.948;2022-12-18T12:26:10;32.42;;;15.30;;
3993;SDS011;2011;48.238;13.948;2022-12-18T12:28:57;29.08;;;14.63;;
3993;SDS011;2011;48.238;13.948;2022-12-18T12:31:37;37.08;;;17.73;;
3993;SDS011;2011;48.238;13.948;2022-12-18T12:34:17;29.60;;;15.15;;
3993;SDS011;2011;48.238;13.948;2022-12-18T12:36:52;31.85;;;15.35;;
3993;SDS011;2011;48.238;13.948;2022-12-18T12:39:30;36.60;;;16.65;;
3993;SDS011;2011;48.238;13.948;2022-12-18T12:41:59;32.17;;;15.38;;
3993;SDS011;2011;48.238;13.948;2022-12-18T12:44:45;34.00;;;17.23;;
3993;SDS011;2011;48.238;13.948;2022-12-18T12:47:18;33.95;;;16.00;;
3993;SDS011;2011;48.238;13.948;2022-12-18T12:49:49;29.63;;;15.57;;
3993;SDS011;2011;48.238;13.948;2022-12-18T12:52:17;33.33;;;16.55;;
3993;SDS011;2011;48.238;13.948;2022-12-18T12:54:53;30.30;;;15.80;;
3993;SDS011;2011;48.238;13.948;2022-12-18T12:57:22;33.67;;;17.60;;
3993;SDS011;2011;48.238;13.948;2022-12-18T12:59:56;35.08;;;17.23;;
3993;SDS011;2011;48.238;13.948;2022-12-18T13:02:31;30.20;;;16.25;;
3993;SDS011;2011;48.238;13.948;2022-12-18T13:05:03;41.80;;;16.33;;
3993;SDS011;2011;48.238;13.948;2022-12-18T13:07:37;34.17;;;17.63;;
3993;SDS011;2011;48.238;13.948;2022-12-18T13:10:12;39.30;;;16.80;;
3993;SDS011;2011;48.238;13.948;2022-12-18T13:12:55;31.55;;;16.42;;
3993;SDS011;2011;48.238;13.948;2022-12-18T13:15:23;33.75;;;16.38;;
3993;SDS011;2011;48.238;13.948;2022-12-18T13:18:04;33.63;;;16.63;;
3993;SDS011;2011;48.238;13.948;2022-12-18T13:20:39;35.60;;;17.25;;
3993;SDS011;2011;48.238;13.948;2022-12-18T13:23:26;35.97;;;16.27;;
3993;SDS011;2011;48.238;13.948;2022-12-18T13:26:00;35.33;;;17.50;;
3993;SDS011;2011;48.238;13.948;2022-12-18T13:28:59;30.63;;;16.80;;
3993;SDS011;2011;48.238;13.948;2022-12-18T13:34:27;31.38;;;16.20;;
3993;SDS011;2011;48.238;13.948;2022-12-18T13:36:56;35.08;;;16.98;;
3993;SDS011;2011;48.238;13.948;2022-12-18T13:39:44;31.00;;;15.98;;
3993;SDS011;2011;48.238;13.948;2022-12-18T13:45:41;35.25;;;17.33;;
3993;SDS011;2011;48.238;13.948;2022-12-18T13:48:17;34.10;;;17.02;;
3993;SDS011;2011;48.238;13.948;2022-12-18T13:50:53;40.20;;;17.60;;
3993;SDS011;2011;48.238;13.948;2022-12-18T13:53:26;34.38;;;17.40;;
3993;SDS011;2011;48.238;13.948;2022-12-18T13:55:56;38.53;;;17.65;;
3993;SDS011;2011;48.238;13.948;2022-12-18T13:58:24;36.77;;;18.03;;
3993;SDS011;2011;48.238;13.948;2022-12-18T14:00:51;35.15;;;17.13;;
3993;SDS011;2011;48.238;13.948;2022-12-18T14:03:19;37.72;;;17.17;;
3993;SDS011;2011;48.238;13.948;2022-12-18T14:05:53;35.88;;;16.02;;
3993;SDS011;2011;48.238;13.948;2022-12-18T14:08:25;34.30;;;17.38;;
3993;SDS011;2011;48.238;13.948;2022-12-18T14:10:58;34.63;;;16.90;;
3993;SDS011;2011;48.238;13.948;2022-12-18T14:13:28;37.50;;;17.80;;
3993;SDS011;2011;48.238;13.948;2022-12-18T14:15:59;39.80;;;18.08;;
3993;SDS011;2011;48.238;13.948;2022-12-18T14:18:29;32.30;;;15.73;;
3993;SDS011;2011;48.238;13.948;2022-12-18T14:21:03;33.15;;;15.95;;
3993;SDS011;2011;48.238;13.948;2022-12-18T14:23:32;36.67;;;18.10;;
3993;SDS011;2011;48.238;13.948;2022-12-18T14:26:03;35.95;;;17.50;;
3993;SDS011;2011;48.238;13.948;2022-12-18T14:28:46;37.15;;;18.02;;
3993;SDS011;2011;48.238;13.948;2022-12-18T14:31:16;40.95;;;18.35;;
3993;SDS011;2011;48.238;13.948;2022-12-18T14:33:45;34.00;;;16.48;;
3993;SDS011;2011;48.238;13.948;2022-12-18T14:36:16;42.53;;;18.63;;
3993;SDS011;2011;48.238;13.948;2022-12-18T14:38:47;43.25;;;19.92;;
3993;SDS011;2011;48.238;13.948;2022-12-18T14:41:15;43.10;;;18.60;;
3993;SDS011;2011;48.238;13.948;2022-12-18T14:43:44;38.67;;;19.65;;
3993;SDS011;2011;48.238;13.948;2022-12-18T14:46:29;39.45;;;19.83;;
3993;SDS011;2011;48.238;13.948;2022-12-18T14:48:59;39.38;;;20.25;;
3993;SDS011;2011;48.238;13.948;2022-12-18T14:51:29;39.45;;;19.02;;
3993;SDS011;2011;48.238;13.948;2022-12-18T14:53:59;38.07;;;18.13;;
3993;SDS011;2011;48.238;13.948;2022-12-18T14:56:28;42.90;;;19.23;;
3993;SDS011;2011;48.238;13.948;2022-12-18T14:58:57;43.40;;;19.70;;
3993;SDS011;2011;48.238;13.948;2022-12-18T15:01:26;40.38;;;18.88;;